Time;durP1;ratioP1;P1;durP2;ratioP2;P2;SDS_P1;SDS_P2;PMS_P1;PMS_P2;Temp;Humidity;BMP_temperature;BMP_pressure;BME280_temperature;BME280_humidity;BME280_pressure;Samples;Min_cycle;Max_cycle;Signal;HPM_P1;HPM_P2
2023/01/12 00:01:59;;;;;;;12.10;7.77;;;;;;;2.12;100.00;94783.53;5064071;28;20212;-76
2023/01/12 00:04:26;;;;;;;11.57;7.47;;;;;;;2.09;100.00;94783.84;5064615;28;20240;-76
2023/01/12 00:06:53;;;;;;;10.53;6.90;;;;;;;2.09;100.00;94783.84;5064986;28;20221;-76
2023/01/12 00:09:20;;;;;;;12.63;7.73;;;;;;;2.16;100.00;94776.31;5064148;28;20262;-77
2023/01/12 00:12:11;;;;;;;11.60;7.53;;;;;;;2.12;100.00;94780.16;5065791;28;20202;-78
2023/01/12 00:14:39;;;;;;;11.23;7.27;;;;;;;2.11;100.00;94783.66;5064951;28;20186;-77
2023/01/12 00:17:10;;;;;;;12.17;8.00;;;;;;;2.07;100.00;94780.66;5064254;28;20656;-76
2023/01/12 00:19:38;;;;;;;14.00;8.10;;;;;;;2.08;100.00;94787.34;5064961;28;20956;-77
2023/01/12 00:22:10;;;;;;;12.87;8.37;;;;;;;2.18;100.00;94794.88;5066187;28;20280;-76
2023/01/12 00:24:39;;;;;;;13.53;8.50;;;;;;;2.19;100.00;94788.81;5064319;28;20196;-77
2023/01/12 00:27:08;;;;;;;12.83;7.33;;;;;;;2.25;100.00;94791.50;5066914;28;20217;-76
2023/01/12 00:29:36;;;;;;;13.00;7.37;;;;;;;2.35;100.00;94796.44;5070165;28;20265;-76
2023/01/12 00:32:04;;;;;;;13.20;7.90;;;;;;;2.49;100.00;94802.66;5067953;28;20214;-76
2023/01/12 00:34:33;;;;;;;11.13;7.13;;;;;;;2.58;100.00;94794.78;5067689;28;20193;-77
2023/01/12 00:37:00;;;;;;;11.10;7.67;;;;;;;2.45;100.00;94765.50;5069976;28;20193;-76
2023/01/12 00:39:27;;;;;;;10.80;7.20;;;;;;;2.71;100.00;94795.03;5067447;28;20197;-75
2023/01/12 00:47:23;;;;;;;11.07;6.90;;;;;;;2.78;100.00;94797.75;5070020;28;20251;-75
2023/01/12 00:49:51;;;;;;;13.10;7.50;;;;;;;2.63;100.00;94800.19;5067798;28;20539;-76
2023/01/12 00:52:20;;;;;;;12.23;7.20;;;;;;;2.46;100.00;94787.59;5065310;28;20204;-76
2023/01/12 00:54:47;;;;;;;12.43;7.80;;;;;;;2.53;100.00;94799.59;5070199;28;20200;-75
2023/01/12 00:57:16;;;;;;;11.07;7.20;;;;;;;2.43;100.00;94793.84;5068380;28;20200;-74
2023/01/12 00:59:44;;;;;;;15.03;8.40;;;;;;;2.35;100.00;94793.06;5067427;28;20193;-77
2023/01/12 01:02:11;;;;;;;12.83;7.97;;;;;;;2.26;100.00;94785.41;5070227;28;20288;-76
2023/01/12 01:04:38;;;;;;;13.50;8.57;;;;;;;2.38;100.00;94793.56;5066872;28;20227;-76
2023/01/12 01:07:07;;;;;;;12.07;7.00;;;;;;;2.41;100.00;94785.53;5067366;28;20225;-76
2023/01/12 01:09:33;;;;;;;11.10;6.90;;;;;;;2.25;100.00;94795.84;5068934;28;20223;-76
2023/01/12 01:12:00;;;;;;;13.57;7.53;;;;;;;2.12;100.00;94791.22;5066954;28;20220;-75
2023/01/12 01:14:27;;;;;;;11.17;7.27;;;;;;;2.06;100.00;94799.53;5066694;28;20204;-75
2023/01/12 01:16:54;;;;;;;13.27;8.10;;;;;;;2.14;100.00;94794.41;5068833;28;20199;-75
2023/01/12 01:19:20;;;;;;;11.27;7.17;;;;;;;2.11;100.00;94793.91;5066972;28;20200;-75
2023/01/12 01:21:47;;;;;;;12.10;7.43;;;;;;;2.05;100.00;94794.59;5066833;28;20214;-75
2023/01/12 01:24:16;;;;;;;12.23;7.30;;;;;;;2.01;100.00;94793.31;5068859;28;20208;-76
2023/01/12 01:26:43;;;;;;;11.20;7.37;;;;;;;2.04;100.00;94793.78;5067020;28;20229;-76
2023/01/12 01:29:10;;;;;;;12.73;7.90;;;;;;;2.06;100.00;94799.53;5067616;28;20607;-76
2023/01/12 01:31:37;;;;;;;12.20;7.17;;;;;;;2.08;100.00;94789.13;5068555;28;20193;-76
2023/01/12 01:34:04;;;;;;;11.63;7.47;;;;;;;2.06;100.00;94798.75;5066742;28;20205;-76
2023/01/12 01:36:30;;;;;;;11.57;7.60;;;;;;;2.04;100.00;94798.91;5066422;28;20197;-77
2023/01/12 01:38:57;;;;;;;11.63;7.43;;;;;;;2.03;100.00;94789.63;5068003;28;20196;-76
2023/01/12 01:41:28;;;;;;;12.70;8.40;;;;;;;2.10;100.00;94800.84;5066508;28;20270;-77
2023/01/12 01:43:58;;;;;;;12.53;7.17;;;;;;;2.14;100.00;94808.97;5066612;28;20193;-76
2023/01/12 01:46:38;;;;;;;12.63;7.87;;;;;;;2.11;100.00;94811.84;5068780;28;20197;-76
2023/01/12 01:49:28;;;;;;;13.57;7.67;;;;;;;2.17;100.00;94806.88;5066750;28;20185;-77
2023/01/12 01:52:07;;;;;;;11.40;7.83;;;;;;;2.20;100.00;94816.00;5065644;28;20203;-77
2023/01/12 01:54:43;;;;;;;12.83;8.00;;;;;;;2.24;100.00;94809.63;5067277;28;20193;-75
2023/01/12 01:57:13;;;;;;;11.43;7.13;;;;;;;2.24;100.00;94815.53;5069199;28;20195;-76
2023/01/12 01:59:45;;;;;;;13.90;8.10;;;;;;;2.32;100.00;94814.72;5064466;28;20584;-76
2023/01/12 02:02:13;;;;;;;12.90;7.77;;;;;;;2.36;100.00;94807.50;5065170;28;20204;-76
2023/01/12 02:04:40;;;;;;;14.37;8.37;;;;;;;2.41;100.00;94810.38;5068647;28;20240;-76
2023/01/12 02:07:07;;;;;;;13.10;8.17;;;;;;;2.50;100.00;94811.94;5066470;28;20209;-77
2023/01/12 02:09:34;;;;;;;12.63;8.20;;;;;;;2.45;100.00;94809.09;5066017;28;20205;-76
2023/01/12 02:17:48;;;;;;;14.00;8.00;;;;;;;2.27;100.00;94810.09;5065736;28;20279;-76
2023/01/12 02:20:36;;;;;;;14.17;7.87;;;;;;;2.21;100.00;94808.19;5065845;28;20212;-76
2023/01/12 02:23:43;;;;;;;13.40;8.13;;;;;;;2.17;100.00;94808.66;5067118;28;20193;-76
2023/01/12 02:26:35;;;;;;;12.20;8.07;;;;;;;2.11;100.00;94811.84;5066597;28;20670;-76
2023/01/12 02:29:40;;;;;;;13.97;7.83;;;;;;;2.09;100.00;94812.03;5065319;28;20250;-74
2023/01/12 02:32:19;;;;;;;13.67;8.37;;;;;;;2.13;100.00;94804.84;5047579;28;20200;-74
2023/01/12 02:34:54;;;;;;;15.53;8.77;;;;;;;2.13;100.00;94808.19;5066420;28;20193;-75
2023/01/12 02:37:31;;;;;;;13.20;7.97;;;;;;;2.13;100.00;94792.81;5067057;28;20559;-75
2023/01/12 02:40:05;;;;;;;11.90;8.00;;;;;;;2.28;100.00;94793.72;5064518;28;20200;-74
2023/01/12 02:42:40;;;;;;;12.13;7.70;;;;;;;2.35;100.00;94811.03;5064900;28;20201;-75
2023/01/12 02:45:19;;;;;;;14.53;8.53;;;;;;;2.22;100.00;94791.81;5067589;28;20189;-75
2023/01/12 02:47:55;;;;;;;13.00;7.70;;;;;;;2.45;100.00;94814.22;5063839;28;20197;-75
2023/01/12 02:50:29;;;;;;;10.90;7.17;;;;;;;2.41;100.00;94812.94;5063064;28;20200;-75
2023/01/12 02:53:04;;;;;;;10.87;7.17;;;;;;;2.36;100.00;94810.06;5066474;28;20633;-76
2023/01/12 02:55:31;;;;;;;11.33;7.30;;;;;;;2.42;100.00;94817.91;5066561;28;20188;-76
2023/01/12 02:58:00;;;;;;;11.10;7.70;;;;;;;2.37;100.00;94811.69;5065955;28;20193;-77
2023/01/12 03:00:28;;;;;;;12.27;7.77;;;;;;;2.40;100.00;94811.31;5065978;28;20231;-76
2023/01/12 03:02:56;;;;;;;12.43;7.90;;;;;;;2.41;100.00;94806.03;5066373;28;20559;-76
2023/01/12 03:05:23;;;;;;;12.23;7.67;;;;;;;2.41;100.00;94805.25;5064431;28;20232;-76
2023/01/12 03:07:58;;;;;;;11.43;7.43;;;;;;;2.48;100.00;94804.41;5065577;28;20225;-76
2023/01/12 03:10:51;;;;;;;10.50;6.33;;;;;;;2.44;100.00;94807.47;5066709;28;20193;-75
2023/01/12 03:13:20;;;;;;;9.90;6.53;;;;;;;2.34;100.00;94806.88;5064525;28;20690;-76
2023/01/12 03:15:50;;;;;;;9.77;6.70;;;;;;;2.26;100.00;94803.34;5063756;28;20583;-77
2023/01/12 03:18:27;;;;;;;9.20;5.77;;;;;;;2.12;100.00;94785.28;5066855;28;20201;-77
2023/01/12 03:20:59;;;;;;;10.90;6.67;;;;;;;2.13;100.00;94786.88;5065107;28;20594;-77
2023/01/12 03:23:31;;;;;;;11.53;6.83;;;;;;;2.17;100.00;94796.63;5064611;28;20193;-77
2023/01/12 03:26:00;;;;;;;10.33;6.63;;;;;;;2.20;100.00;94804.00;5065127;28;20196;-78
2023/01/12 03:28:34;;;;;;;9.90;6.37;;;;;;;2.21;100.00;94797.94;5066008;28;20212;-77
2023/01/12 03:31:07;;;;;;;9.57;6.50;;;;;;;2.26;100.00;94800.78;5065513;28;20251;-76
2023/01/12 03:33:36;;;;;;;12.07;6.80;;;;;;;2.32;100.00;94801.09;5064172;28;20197;-77
2023/01/12 03:36:10;;;;;;;12.70;7.87;;;;;;;2.34;100.00;94807.66;5066646;28;20202;-79
2023/01/12 03:38:43;;;;;;;12.93;7.70;;;;;;;2.37;100.00;94799.63;5065167;28;20185;-77
2023/01/12 03:41:13;;;;;;;12.70;7.77;;;;;;;2.37;100.00;94796.28;5064729;28;20204;-77
2023/01/12 03:43:49;;;;;;;10.63;6.77;;;;;;;2.45;100.00;94791.13;5066313;28;20205;-77
2023/01/12 03:46:21;;;;;;;10.60;6.80;;;;;;;2.35;100.00;94796.44;5063749;28;20211;-77
2023/01/12 03:48:54;;;;;;;11.70;7.10;;;;;;;2.20;100.00;94798.06;5063813;28;20221;-77
2023/01/12 03:51:25;;;;;;;10.63;7.30;;;;;;;2.18;100.00;94794.88;5066592;28;20203;-77
2023/01/12 03:53:54;;;;;;;10.13;6.37;;;;;;;2.17;100.00;94790.72;5064113;28;20280;-75
2023/01/12 03:56:25;;;;;;;10.80;6.80;;;;;;;2.23;100.00;94780.59;5064792;28;20615;-75
2023/01/12 03:58:52;;;;;;;10.20;6.67;;;;;;;2.07;100.00;94784.97;5066848;28;20185;-77
2023/01/12 04:01:19;;;;;;;10.57;6.47;;;;;;;1.95;100.00;94779.38;5064788;28;20193;-77
2023/01/12 04:03:47;;;;;;;12.67;6.50;;;;;;;1.88;100.00;94775.84;5063342;28;20196;-77
2023/01/12 04:06:15;;;;;;;12.87;7.47;;;;;;;1.88;100.00;94775.06;5064699;28;20204;-77
2023/01/12 04:08:42;;;;;;;11.50;7.03;;;;;;;1.87;100.00;94779.41;5065409;28;20213;-77
2023/01/12 04:13:49;;;;;;;11.53;7.00;;;;;;;1.92;100.00;94768.66;5064341;28;20197;-77
2023/01/12 04:16:16;;;;;;;11.97;7.27;;;;;;;1.93;100.00;94768.50;5065432;28;20570;-78
2023/01/12 04:18:43;;;;;;;10.67;7.00;;;;;;;1.99;100.00;94780.63;5063927;28;20202;-76
2023/01/12 04:22:41;;;;;;;11.03;7.37;;;;;;;2.10;100.00;94774.41;5064551;28;20208;-75
2023/01/12 04:23:57;;;;;;;12.93;7.67;;;;;;;2.09;100.00;94776.16;5064480;28;20311;-76
2023/01/12 04:26:24;;;;;;;12.07;7.50;;;;;;;2.11;100.00;94779.34;5064007;28;20657;-76
2023/01/12 04:28:51;;;;;;;14.03;7.83;;;;;;;2.11;100.00;94783.66;5064080;28;20255;-76
2023/01/12 04:31:18;;;;;;;12.40;8.13;;;;;;;2.15;100.00;94784.94;5064428;28;20189;-76
2023/01/12 04:33:45;;;;;;;11.93;7.50;;;;;;;2.17;100.00;94793.28;5063909;28;20675;-76
2023/01/12 04:36:11;;;;;;;14.90;8.30;;;;;;;2.12;100.00;94786.09;5063943;28;20204;-76
2023/01/12 04:38:39;;;;;;;12.20;7.60;;;;;;;2.12;100.00;94793.78;5066521;28;20197;-74
2023/01/12 04:41:08;;;;;;;12.67;8.00;;;;;;;2.12;100.00;94790.41;5063633;28;20200;-74
2023/01/12 04:43:36;;;;;;;11.60;7.37;;;;;;;2.09;100.00;94793.28;5064008;28;20213;-74
2023/01/12 04:46:06;;;;;;;11.67;7.57;;;;;;;2.07;100.00;94795.22;5066022;28;20201;-74
2023/01/12 04:48:32;;;;;;;14.57;7.80;;;;;;;2.05;100.00;94799.72;5063729;28;20219;-74
2023/01/12 04:51:00;;;;;;;14.57;8.40;;;;;;;1.99;100.00;94780.63;5063692;28;20197;-73
2023/01/12 04:53:27;;;;;;;15.93;8.73;;;;;;;2.17;100.00;94798.41;5065585;28;20197;-73
2023/01/12 04:55:54;;;;;;;19.37;9.23;;;;;;;2.17;100.00;94799.19;5062736;28;20196;-73
2023/01/12 04:58:24;;;;;;;22.93;10.53;;;;;;;2.09;100.00;94799.22;5063048;28;20186;-73
2023/01/12 05:00:51;;;;;;;19.30;9.90;;;;;;;2.11;100.00;94799.03;5064891;28;21151;-73
2023/01/12 05:03:18;;;;;;;18.83;10.20;;;;;;;2.03;100.00;94812.69;5063615;28;20192;-74
2023/01/12 05:05:45;;;;;;;16.20;9.60;;;;;;;2.03;100.00;94807.56;5063504;28;20242;-73
2023/01/12 05:10:58;;;;;;;16.30;9.83;;;;;;;2.03;100.00;94812.69;5063150;28;20205;-73
2023/01/12 05:13:27;;;;;;;16.77;9.47;;;;;;;1.97;100.00;94822.78;5066915;28;20204;-73
2023/01/12 05:15:54;;;;;;;15.93;9.60;;;;;;;2.10;100.00;94826.47;5067601;28;20197;-73
2023/01/12 05:18:21;;;;;;;17.70;10.60;;;;;;;2.10;100.00;94815.41;5068061;28;20200;-75
2023/01/12 05:20:48;;;;;;;18.67;11.00;;;;;;;2.17;100.00;94824.03;5067158;28;20208;-73
2023/01/12 05:23:15;;;;;;;18.60;10.57;;;;;;;2.11;100.00;94829.78;5068263;28;20585;-74
2023/01/12 05:25:42;;;;;;;19.43;10.67;;;;;;;2.09;100.00;94829.16;5067657;28;20542;-73
2023/01/12 05:28:09;;;;;;;17.33;10.03;;;;;;;2.09;100.00;94818.91;5065988;28;20209;-74
2023/01/12 05:30:37;;;;;;;19.20;10.57;;;;;;;2.05;100.00;94838.94;5067960;28;20197;-74
2023/01/12 05:33:04;;;;;;;17.07;9.17;;;;;;;2.08;100.00;94825.00;5067834;28;20207;-74
2023/01/12 05:35:30;;;;;;;18.40;9.77;;;;;;;2.09;100.00;94839.41;5066154;28;20197;-74
2023/01/12 05:37:57;;;;;;;20.90;9.83;;;;;;;2.05;100.00;94844.06;5067751;28;20200;-74
2023/01/12 05:40:24;;;;;;;17.50;10.43;;;;;;;2.06;100.00;94847.44;5066954;28;20221;-73
2023/01/12 05:45:37;;;;;;;16.87;9.23;;;;;;;2.07;100.00;94854.97;5067351;28;20279;-75
2023/01/12 05:48:04;;;;;;;18.70;9.93;;;;;;;2.23;100.00;94865.19;5068455;28;20218;-74
2023/01/12 05:50:31;;;;;;;14.77;8.93;;;;;;;2.32;100.00;94857.50;5066513;28;20205;-73
2023/01/12 05:52:58;;;;;;;16.83;9.07;;;;;;;2.29;100.00;94862.00;5065284;28;20202;-74
2023/01/12 05:55:25;;;;;;;15.30;8.83;;;;;;;2.15;100.00;94838.78;5068544;28;20658;-74
2023/01/12 05:57:51;;;;;;;16.20;8.87;;;;;;;2.34;100.00;94863.28;5065463;28;20281;-74
2023/01/12 06:00:19;;;;;;;13.77;8.93;;;;;;;2.43;100.00;94857.97;5063636;28;20209;-75
2023/01/12 06:02:47;;;;;;;15.37;9.00;;;;;;;2.53;100.00;94865.47;5067018;28;20672;-74
2023/01/12 06:05:14;;;;;;;15.47;9.10;;;;;;;2.47;100.00;94869.50;5064451;28;20232;-73
2023/01/12 06:07:41;;;;;;;16.40;9.40;;;;;;;2.50;100.00;94868.38;5065009;28;20201;-73
2023/01/12 06:10:09;;;;;;;17.30;9.43;;;;;;;2.50;100.00;94866.63;5067331;28;20243;-74
2023/01/12 06:15:20;;;;;;;19.53;11.10;;;;;;;2.61;100.00;94865.47;5065583;28;20185;-74
2023/01/12 06:17:48;;;;;;;22.00;11.83;;;;;;;2.52;100.00;94864.69;5066814;28;20583;-74
2023/01/12 06:20:16;;;;;;;25.87;13.40;;;;;;;2.46;100.00;94867.09;5064868;28;20202;-74
2023/01/12 06:22:43;;;;;;;21.93;11.70;;;;;;;2.32;100.00;94866.00;5065879;28;20205;-74
2023/01/12 06:25:10;;;;;;;19.87;10.50;;;;;;;2.31;100.00;94874.63;5067512;28;20613;-74
2023/01/12 06:27:37;;;;;;;18.27;9.83;;;;;;;2.10;100.00;94846.16;5066102;28;20258;-74
2023/01/12 06:30:05;;;;;;;15.93;8.60;;;;;;;2.32;100.00;94857.50;5065167;28;20213;-74
2023/01/12 06:32:32;;;;;;;16.63;9.40;;;;;;;2.30;100.00;94860.22;5068022;28;20204;-73
2023/01/12 06:35:02;;;;;;;16.87;9.57;;;;;;;2.27;100.00;94873.38;5064701;28;20193;-74
2023/01/12 06:37:28;;;;;;;17.23;10.10;;;;;;;2.23;100.00;94872.09;5066238;28;20189;-76
2023/01/12 06:39:55;;;;;;;17.83;10.27;;;;;;;2.12;100.00;94870.66;5067120;28;20652;-73
2023/01/12 06:42:28;;;;;;;21.33;11.50;;;;;;;2.13;100.00;94863.78;5065664;28;20200;-74
2023/01/12 06:44:55;;;;;;;20.53;11.00;;;;;;;2.21;100.00;94874.03;5065452;28;20201;-75
2023/01/12 06:47:22;;;;;;;18.77;10.10;;;;;;;2.35;100.00;94865.66;5066887;28;20199;-73
2023/01/12 06:49:50;;;;;;;17.87;10.70;;;;;;;2.41;100.00;94875.28;5065205;28;20224;-75
2023/01/12 06:52:19;;;;;;;18.87;11.07;;;;;;;2.46;100.00;94875.59;5065014;28;20188;-73
2023/01/12 06:54:46;;;;;;;21.73;11.33;;;;;;;2.40;100.00;94885.69;5066998;28;20236;-74
2023/01/12 06:57:13;;;;;;;19.63;11.80;;;;;;;2.45;100.00;94876.56;5064921;28;20663;-75
2023/01/12 06:59:41;;;;;;;22.07;11.07;;;;;;;2.51;100.00;94885.38;5064778;28;20205;-74
2023/01/12 07:02:12;;;;;;;18.73;10.50;;;;;;;2.43;100.00;94887.91;5067010;28;20289;-73
2023/01/12 07:04:39;;;;;;;18.27;10.47;;;;;;;2.36;100.00;94887.00;5065164;28;20271;-73
2023/01/12 07:07:06;;;;;;;16.83;9.73;;;;;;;2.41;100.00;94885.53;5064543;28;20560;-73
2023/01/12 07:09:35;;;;;;;19.73;11.07;;;;;;;2.54;100.00;94887.63;5066882;28;20768;-74
2023/01/12 07:12:01;;;;;;;22.63;12.40;;;;;;;2.57;100.00;94889.84;5065411;28;20201;-74
2023/01/12 07:14:28;;;;;;;22.93;13.30;;;;;;;2.59;100.00;94893.84;5064353;28;20196;-74
2023/01/12 07:16:56;;;;;;;21.87;12.40;;;;;;;2.60;100.00;94894.63;5066120;28;20198;-74
2023/01/12 07:19:22;;;;;;;19.37;10.77;;;;;;;2.62;100.00;94887.59;5065234;28;20687;-74
2023/01/12 07:21:49;;;;;;;17.40;10.47;;;;;;;2.63;100.00;94887.41;5064415;28;20203;-74
2023/01/12 07:24:16;;;;;;;18.87;10.60;;;;;;;2.67;100.00;94882.75;5065789;28;20281;-74
2023/01/12 07:26:47;;;;;;;21.03;12.10;;;;;;;2.75;100.00;94886.09;5065013;28;20212;-74
2023/01/12 07:29:14;;;;;;;21.07;13.20;;;;;;;2.79;100.00;94884.81;5064103;28;20221;-75
2023/01/12 07:31:43;;;;;;;21.47;12.30;;;;;;;2.85;100.00;94888.50;5065538;28;20580;-75
2023/01/12 07:34:10;;;;;;;21.33;12.13;;;;;;;2.74;100.00;94874.22;5065747;28;20224;-75
2023/01/12 07:36:36;;;;;;;18.73;11.10;;;;;;;2.72;100.00;94889.00;5064624;28;20196;-75
2023/01/12 07:39:03;;;;;;;22.27;12.20;;;;;;;2.73;100.00;94890.63;5065131;28;20795;-73
2023/01/12 07:44:16;;;;;;;22.03;11.80;;;;;;;2.83;100.00;94888.66;5063808;28;20770;-75
2023/01/12 07:46:42;;;;;;;22.17;10.27;;;;;;;2.84;100.00;94881.75;5064151;28;21006;-74
2023/01/12 07:49:09;;;;;;;17.73;9.50;;;;;;;2.85;100.00;94878.22;5066627;28;20240;-73
2023/01/12 07:51:36;;;;;;;19.40;11.17;;;;;;;2.88;100.00;94877.09;5064414;28;20683;-74
2023/01/12 07:54:03;;;;;;;18.90;10.53;;;;;;;2.93;100.00;94880.75;5064088;28;20569;-78
2023/01/12 07:56:30;;;;;;;19.50;10.70;;;;;;;2.95;100.00;94878.81;5067570;28;20201;-77
2023/01/12 07:58:56;;;;;;;19.93;10.70;;;;;;;2.96;100.00;94880.44;5064342;28;20631;-74
2023/01/12 08:01:25;;;;;;;16.33;9.07;;;;;;;2.92;100.00;94884.28;5064205;28;20577;-76
2023/01/12 08:03:52;;;;;;;13.20;7.73;;;;;;;2.81;100.00;94894.91;5065892;28;20212;-77
2023/01/12 08:06:18;;;;;;;15.13;9.37;;;;;;;2.76;100.00;94895.41;5064439;28;20201;-75
2023/01/12 08:08:45;;;;;;;15.80;9.90;;;;;;;2.83;100.00;94895.53;5064085;28;20229;-75
2023/01/12 08:11:12;;;;;;;19.50;10.40;;;;;;;2.95;100.00;94901.13;5066402;28;20196;-76
2023/01/12 08:13:39;;;;;;;13.83;8.00;;;;;;;3.02;100.00;94894.38;5062187;28;20189;-77
2023/01/12 08:16:12;;;;;;;12.33;7.73;;;;;;;2.99;100.00;94887.00;5064449;28;20201;-77
2023/01/12 08:18:45;;;;;;;13.00;8.17;;;;;;;3.00;100.00;94891.94;5066359;28;20267;-75
2023/01/12 08:21:18;;;;;;;11.47;7.33;;;;;;;3.21;100.00;94888.84;5063561;28;20194;-75
2023/01/12 08:23:49;;;;;;;10.23;6.87;;;;;;;3.14;100.00;94898.19;5062920;28;20289;-75
2023/01/12 08:26:22;;;;;;;9.93;6.97;;;;;;;3.16;100.00;94891.91;5065348;28;20937;-75
2023/01/12 08:28:55;;;;;;;11.80;7.20;;;;;;;3.24;100.00;94893.63;5062273;28;20869;-75
2023/01/12 08:31:25;;;;;;;13.27;7.47;;;;;;;3.31;100.00;94885.13;5062611;28;20573;-76
2023/01/12 08:33:55;;;;;;;13.47;8.73;;;;;;;3.41;100.00;94888.25;5063360;28;20186;-76
2023/01/12 08:36:23;;;;;;;17.13;8.20;;;;;;;3.47;100.00;94886.78;5062020;28;20671;-75
2023/01/12 08:38:50;;;;;;;8.67;6.17;;;;;;;3.53;100.00;94882.75;5062250;28;20191;-74
2023/01/12 08:41:36;;;;;;;7.53;5.40;;;;;;;3.56;100.00;94887.53;5063984;28;20198;-75
2023/01/12 08:44:08;;;;;;;7.90;5.53;;;;;;;3.66;100.00;94888.13;5065319;28;20198;-82
2023/01/12 08:46:36;;;;;;;10.20;6.80;;;;;;;3.64;100.00;94890.06;5065794;28;20198;-79
2023/01/12 08:49:08;;;;;;;11.40;7.37;;;;;;;3.62;100.00;94892.81;5067804;28;20214;-83
2023/01/12 08:51:38;;;;;;;16.77;10.73;;;;;;;3.49;100.00;94884.88;5069438;28;20660;-76
2023/01/12 08:54:05;;;;;;;15.33;9.93;;;;;;;3.58;100.00;94888.19;5053474;28;20213;-77
2023/01/12 08:56:32;;;;;;;14.10;9.40;;;;;;;3.63;100.00;94880.75;5056381;28;20202;-77
2023/01/12 08:58:59;;;;;;;11.63;7.63;;;;;;;3.75;100.00;94893.03;5067176;28;20197;-77
2023/01/12 09:01:26;;;;;;;10.07;6.90;;;;;;;3.79;100.00;94899.44;5067036;28;20204;-77
2023/01/12 09:03:53;;;;;;;9.43;5.00;;;;;;;3.78;100.00;94907.34;5066375;28;20240;-77
2023/01/12 09:06:24;;;;;;;7.07;4.63;;;;;;;3.78;100.00;94885.00;5067351;28;20182;-77
2023/01/12 09:08:54;;;;;;;6.87;4.60;;;;;;;3.89;100.00;94896.66;5066452;28;20292;-77
2023/01/12 09:11:21;;;;;;;7.57;5.20;;;;;;;3.91;100.00;94898.09;5065027;28;20583;-78
2023/01/12 09:13:48;;;;;;;9.93;5.80;;;;;;;3.89;100.00;94900.03;5069504;28;20190;-77
2023/01/12 09:16:17;;;;;;;8.60;5.97;;;;;;;3.84;100.00;94897.16;5067415;28;20285;-77
2023/01/12 09:18:44;;;;;;;7.07;4.77;;;;;;;3.95;100.00;94898.56;5067136;28;20204;-76
2023/01/12 09:21:14;;;;;;;7.30;4.80;;;;;;;3.97;100.00;94888.88;5069960;28;20185;-77
2023/01/12 09:23:43;;;;;;;6.67;4.57;;;;;;;4.17;100.00;94897.75;5067196;28;20227;-79
2023/01/12 09:26:11;;;;;;;7.27;5.10;;;;;;;4.20;100.00;94894.81;5067507;28;20199;-78
2023/01/12 09:28:38;;;;;;;9.17;5.67;;;;;;;4.19;100.00;94888.06;5069763;28;20194;-84
2023/01/12 09:31:07;;;;;;;7.40;5.03;;;;;;;4.24;100.00;94896.06;5070096;28;20218;-81
2023/01/12 09:33:35;;;;;;;9.00;6.00;;;;;;;4.07;100.00;94894.59;5067724;28;20198;-85
2023/01/12 09:36:02;;;;;;;11.87;7.20;;;;;;;3.89;100.00;94896.66;4979282;28;20236;-76
2023/01/12 09:38:29;;;;;;;16.47;9.80;;;;;;;3.87;100.00;94894.25;5018939;28;20206;-76
2023/01/12 09:41:00;;;;;;;16.83;11.07;;;;;;;3.89;100.00;94894.09;5026292;28;20920;-77
2023/01/12 09:49:02;;;;;;;7.47;4.60;;;;;;;4.18;100.00;94896.78;5027043;28;20203;-75
2023/01/12 09:51:35;;;;;;;8.77;5.37;;;;;;;4.37;100.00;94896.28;5026649;28;20212;-75
2023/01/12 09:54:03;;;;;;;15.77;7.13;;;;;;;4.36;100.00;94886.97;5027370;28;20202;-76
2023/01/12 09:56:40;;;;;;;9.90;6.53;;;;;;;4.37;100.00;94883.44;5025395;28;20200;-76
2023/01/12 09:59:25;;;;;;;11.87;6.90;;;;;;;4.44;100.00;94881.75;5027199;28;20209;-79
2023/01/12 10:01:53;;;;;;;12.30;6.40;;;;;;;4.16;100.00;94879.91;5028072;28;20207;-76
2023/01/12 10:04:20;;;;;;;11.67;6.20;;;;;;;4.07;100.00;94883.53;5026089;28;20745;-76
2023/01/12 10:06:47;;;;;;;6.47;4.47;;;;;;;4.06;100.00;94885.28;5026402;28;20203;-75
2023/01/12 10:09:18;;;;;;;8.83;5.40;;;;;;;3.95;100.00;94878.00;5028528;28;20220;-76
2023/01/12 10:11:54;;;;;;;13.13;6.80;;;;;;;3.99;100.00;94885.16;5027455;28;20199;-77
2023/01/12 10:14:39;;;;;;;12.60;5.80;;;;;;;4.00;100.00;94885.97;5024278;28;20190;-77
2023/01/12 10:17:24;;;;;;;11.17;6.53;;;;;;;4.06;100.00;94892.19;5026574;28;20198;-77
2023/01/12 10:19:57;;;;;;;11.77;7.90;;;;;;;4.05;100.00;94885.44;5027645;28;20244;-76
2023/01/12 10:22:37;;;;;;;10.13;6.83;;;;;;;3.95;100.00;94881.34;5025626;28;20202;-76
2023/01/12 10:25:14;;;;;;;11.13;7.30;;;;;;;3.93;100.00;94872.19;5025608;28;20270;-77
2023/01/12 10:27:44;;;;;;;10.87;7.30;;;;;;;4.06;100.00;94881.91;5018346;28;20200;-75
2023/01/12 10:30:15;;;;;;;12.50;7.87;;;;;;;4.05;100.00;94881.13;5026559;28;20686;-75
2023/01/12 10:32:42;;;;;;;14.47;8.77;;;;;;;3.87;100.00;94868.53;5025991;28;20271;-77
2023/01/12 10:35:15;;;;;;;9.30;6.03;;;;;;;4.10;100.00;94880.63;5026430;28;21496;-76
2023/01/12 10:37:47;;;;;;;12.10;7.83;;;;;;;3.91;100.00;94872.38;5027444;28;20195;-76
2023/01/12 10:40:24;;;;;;;13.77;8.90;;;;;;;4.05;100.00;94885.44;5025880;28;20205;-76
2023/01/12 10:43:22;;;;;;;22.93;14.67;;;;;;;4.12;100.00;94878.66;5024130;28;20269;-76
2023/01/12 10:46:14;;;;;;;27.23;17.23;;;;;;;4.03;100.00;94882.25;5028138;28;20199;-78
2023/01/12 10:48:43;;;;;;;9.77;6.13;;;;;;;4.00;100.00;94870.56;5017340;28;20203;-78
2023/01/12 10:51:26;;;;;;;8.80;5.60;;;;;;;3.91;100.00;94874.97;5024804;28;20215;-76
2023/01/12 10:53:59;;;;;;;10.67;6.97;;;;;;;3.95;100.00;94872.84;5025672;28;20221;-76
2023/01/12 10:56:34;;;;;;;11.33;6.57;;;;;;;4.03;100.00;94861.69;5027417;28;20245;-76
2023/01/12 10:59:05;;;;;;;7.60;5.33;;;;;;;3.89;100.00;94855.53;5025731;28;20233;-76
2023/01/12 11:01:46;;;;;;;9.90;5.30;;;;;;;3.71;100.00;94857.59;5025135;28;20650;-76
2023/01/12 11:04:14;;;;;;;13.43;7.63;;;;;;;3.82;100.00;94860.56;5026722;28;20222;-76
2023/01/12 11:06:54;;;;;;;8.97;6.23;;;;;;;3.95;100.00;94854.84;5026680;28;20282;-76
2023/01/12 11:09:24;;;;;;;11.93;7.57;;;;;;;3.89;100.00;94847.81;5024733;28;20194;-76
2023/01/12 11:11:56;;;;;;;13.10;8.40;;;;;;;4.04;100.00;94858.16;5025136;28;20286;-76
2023/01/12 11:14:28;;;;;;;13.23;6.77;;;;;;;4.05;100.00;94852.84;5027764;28;20195;-76
2023/01/12 11:17:02;;;;;;;14.00;8.97;;;;;;;4.19;100.00;94867.50;5024370;28;20187;-75
2023/01/12 11:19:32;;;;;;;9.30;6.00;;;;;;;4.20;100.00;94861.38;5025505;28;20195;-76
2023/01/12 11:22:05;;;;;;;8.67;5.87;;;;;;;4.01;100.00;94857.50;5027665;28;20202;-76
2023/01/12 11:24:38;;;;;;;20.63;13.07;;;;;;;4.05;100.00;94855.41;5025057;28;20195;-75
2023/01/12 11:27:14;;;;;;;13.47;8.93;;;;;;;4.15;100.00;94857.75;5025432;28;20179;-76
2023/01/12 11:29:52;;;;;;;10.43;6.60;;;;;;;4.15;100.00;94844.88;5026923;28;20245;-76
2023/01/12 11:32:27;;;;;;;13.60;7.70;;;;;;;4.16;100.00;94849.84;5025027;28;20186;-76
2023/01/12 11:34:59;;;;;;;11.00;7.03;;;;;;;4.11;100.00;94841.84;5024617;28;20182;-76
2023/01/12 11:37:26;;;;;;;12.87;7.43;;;;;;;4.07;100.00;94845.72;5025932;28;20191;-76
2023/01/12 11:40:02;;;;;;;12.27;7.60;;;;;;;4.20;100.00;94840.00;5025415;28;20191;-78
2023/01/12 11:45:22;;;;;;;10.20;7.13;;;;;;;4.42;100.00;94839.16;5022211;28;20218;-77
2023/01/12 11:47:53;;;;;;;12.73;6.97;;;;;;;4.50;100.00;94839.88;5026345;28;20214;-75
2023/01/12 11:50:26;;;;;;;11.00;6.83;;;;;;;4.48;100.00;94835.88;5023413;28;20296;-75
2023/01/12 11:52:54;;;;;;;14.17;7.90;;;;;;;4.46;100.00;94841.22;5024837;28;20187;-75
2023/01/12 11:55:33;;;;;;;11.27;6.77;;;;;;;4.35;100.00;94833.13;5027097;28;20525;-76
2023/01/12 11:58:09;;;;;;;15.83;9.73;;;;;;;4.45;100.00;94833.66;5025088;28;20195;-76
2023/01/12 12:00:55;;;;;;;17.63;10.07;;;;;;;4.57;100.00;94822.78;5024154;28;20187;-77
2023/01/12 12:03:38;;;;;;;15.93;9.80;;;;;;;4.52;100.00;94816.56;5025258;28;20199;-75
2023/01/12 12:06:20;;;;;;;16.73;10.30;;;;;;;4.56;100.00;94822.94;5026441;28;20185;-76
2023/01/12 12:08:57;;;;;;;14.77;8.97;;;;;;;4.43;100.00;94815.84;5023966;28;20261;-76
2023/01/12 12:11:34;;;;;;;15.53;10.30;;;;;;;4.42;100.00;94821.16;5023655;28;20207;-76
2023/01/12 12:14:14;;;;;;;17.67;8.93;;;;;;;4.46;100.00;94809.53;5024730;28;20208;-77